sensor_id;sensor_type;location;lat;lon;timestamp;pressure;altitude;pressure_sealevel;temperature;humidity
46087;BME280;31824;49.648;8.640;2023-08-06T00:02:29;99489.00;;;16.21;100.00
46087;BME280;31824;49.648;8.640;2023-08-06T00:05:31;99476.00;;;16.26;100.00
46087;BME280;31824;49.648;8.640;2023-08-06T00:08:34;99467.84;;;16.37;100.00
46087;BME280;31824;49.648;8.640;2023-08-06T00:11:36;99468.38;;;16.32;100.00
46087;BME280;31824;49.648;8.640;2023-08-06T00:14:38;99464.47;;;16.40;100.00
46087;BME280;31824;49.648;8.640;2023-08-06T00:17:40;99462.97;;;16.45;100.00
46087;BME280;31824;49.648;8.640;2023-08-06T00:20:42;99457.22;;;16.52;100.00
46087;BME280;31824;49.648;8.640;2023-08-06T00:23:45;99458.94;;;16.52;100.00
46087;BME280;31824;49.648;8.640;2023-08-06T00:26:47;99451.84;;;16.51;100.00
46087;BME280;31824;49.648;8.640;2023-08-06T00:29:49;99450.91;;;16.50;100.00
46087;BME280;31824;49.648;8.640;2023-08-06T00:32:51;99443.28;;;16.40;100.00
46087;BME280;31824;49.648;8.640;2023-08-06T00:35:52;99439.59;;;16.38;100.00
46087;BME280;31824;49.648;8.640;2023-08-06T00:38:56;99435.59;;;16.30;100.00
46087;BME280;31824;49.648;8.640;2023-08-06T00:41:58;99435.97;;;16.36;100.00
46087;BME280;31824;49.648;8.640;2023-08-06T00:45:00;99421.03;;;16.38;100.00
46087;BME280;31824;49.648;8.640;2023-08-06T00:48:03;99416.44;;;16.50;100.00
46087;BME280;31824;49.648;8.640;2023-08-06T00:51:07;99415.16;;;16.44;100.00
46087;BME280;31824;49.648;8.640;2023-08-06T00:54:12;99419.00;;;16.49;100.00
46087;BME280;31824;49.648;8.640;2023-08-06T00:57:14;99411.13;;;16.50;100.00
46087;BME280;31824;49.648;8.640;2023-08-06T01:00:16;99409.56;;;16.54;100.00
46087;BME280;31824;49.648;8.640;2023-08-06T01:03:19;99402.69;;;16.58;100.00
46087;BME280;31824;49.648;8.640;2023-08-06T01:06:35;99405.53;;;16.61;100.00
46087;BME280;31824;49.648;8.640;2023-08-06T01:09:45;99400.97;;;16.58;100.00
46087;BME280;31824;49.648;8.640;2023-08-06T01:12:55;99402.53;;;16.54;100.00
46087;BME280;31824;49.648;8.640;2023-08-06T01:16:03;99394.19;;;16.63;100.00
46087;BME280;31824;49.648;8.640;2023-08-06T01:19:16;99392.50;;;16.65;100.00
46087;BME280;31824;49.648;8.640;2023-08-06T01:22:20;99391.59;;;16.65;100.00
46087;BME280;31824;49.648;8.640;2023-08-06T01:25:28;99382.91;;;16.67;100.00
46087;BME280;31824;49.648;8.640;2023-08-06T01:28:41;99380.00;;;16.63;100.00
46087;BME280;31824;49.648;8.640;2023-08-06T01:31:48;99370.41;;;16.65;100.00
46087;BME280;31824;49.648;8.640;2023-08-06T01:34:54;99376.00;;;16.71;100.00
46087;BME280;31824;49.648;8.640;2023-08-06T01:37:58;99373.28;;;16.69;100.00
46087;BME280;31824;49.648;8.640;2023-08-06T01:41:01;99369.06;;;16.73;100.00
46087;BME280;31824;49.648;8.640;2023-08-06T01:44:03;99367.16;;;16.70;100.00
46087;BME280;31824;49.648;8.640;2023-08-06T01:47:06;99376.28;;;16.76;100.00
46087;BME280;31824;49.648;8.640;2023-08-06T01:50:08;99372.91;;;16.78;100.00
46087;BME280;31824;49.648;8.640;2023-08-06T01:53:12;99366.72;;;16.79;100.00
46087;BME280;31824;49.648;8.640;2023-08-06T01:56:14;99359.63;;;16.78;100.00
46087;BME280;31824;49.648;8.640;2023-08-06T01:59:16;99364.09;;;16.79;100.00
46087;BME280;31824;49.648;8.640;2023-08-06T02:02:18;99367.66;;;16.80;100.00
46087;BME280;31824;49.648;8.640;2023-08-06T02:05:21;99364.94;;;16.78;100.00
46087;BME280;31824;49.648;8.640;2023-08-06T02:08:24;99371.13;;;16.79;100.00
46087;BME280;31824;49.648;8.640;2023-08-06T02:11:26;99363.94;;;16.76;100.00
46087;BME280;31824;49.648;8.640;2023-08-06T02:14:28;99362.44;;;16.81;100.00
46087;BME280;31824;49.648;8.640;2023-08-06T02:17:30;99364.16;;;16.81;100.00
46087;BME280;31824;49.648;8.640;2023-08-06T02:20:31;99355.31;;;16.80;100.00
46087;BME280;31824;49.648;8.640;2023-08-06T02:23:36;99348.09;;;16.78;100.00
46087;BME280;31824;49.648;8.640;2023-08-06T02:26:38;99351.56;;;16.77;100.00
46087;BME280;31824;49.648;8.640;2023-08-06T02:29:40;99346.44;;;16.80;100.00
46087;BME280;31824;49.648;8.640;2023-08-06T02:32:43;99343.53;;;16.75;100.00
46087;BME280;31824;49.648;8.640;2023-08-06T02:35:45;99333.78;;;16.74;100.00
46087;BME280;31824;49.648;8.640;2023-08-06T02:38:48;99338.81;;;16.69;100.00
46087;BME280;31824;49.648;8.640;2023-08-06T02:41:50;99330.63;;;16.65;100.00
46087;BME280;31824;49.648;8.640;2023-08-06T02:44:53;99326.72;;;16.58;100.00
46087;BME280;31824;49.648;8.640;2023-08-06T02:47:57;99328.28;;;16.54;100.00
46087;BME280;31824;49.648;8.640;2023-08-06T02:51:00;99328.88;;;16.49;100.00
46087;BME280;31824;49.648;8.640;2023-08-06T02:54:05;99330.19;;;16.41;100.00
46087;BME280;31824;49.648;8.640;2023-08-06T02:57:09;99331.00;;;16.40;100.00
46087;BME280;31824;49.648;8.640;2023-08-06T03:00:11;99326.44;;;16.37;100.00
46087;BME280;31824;49.648;8.640;2023-08-06T03:03:14;99328.13;;;16.35;100.00
46087;BME280;31824;49.648;8.640;2023-08-06T03:06:26;99327.09;;;16.33;100.00
46087;BME280;31824;49.648;8.640;2023-08-06T03:09:32;99318.25;;;16.32;100.00
46087;BME280;31824;49.648;8.640;2023-08-06T03:12:34;99319.72;;;16.27;100.00
46087;BME280;31824;49.648;8.640;2023-08-06T03:15:38;99310.03;;;16.28;100.00
46087;BME280;31824;49.648;8.640;2023-08-06T03:18:42;99315.31;;;16.28;100.00
46087;BME280;31824;49.648;8.640;2023-08-06T03:21:45;99303.91;;;16.29;100.00
46087;BME280;31824;49.648;8.640;2023-08-06T03:24:51;99305.31;;;16.22;100.00
46087;BME280;31824;49.648;8.640;2023-08-06T03:27:58;99307.13;;;16.23;100.00
46087;BME280;31824;49.648;8.640;2023-08-06T03:31:00;99306.03;;;16.19;100.00
46087;BME280;31824;49.648;8.640;2023-08-06T03:34:08;99304.91;;;16.14;100.00
46087;BME280;31824;49.648;8.640;2023-08-06T03:37:10;99302.53;;;16.04;100.00
46087;BME280;31824;49.648;8.640;2023-08-06T03:40:14;99299.91;;;16.04;100.00
46087;BME280;31824;49.648;8.640;2023-08-06T03:43:15;99307.19;;;16.08;100.00
46087;BME280;31824;49.648;8.640;2023-08-06T03:46:18;99303.28;;;16.01;100.00
46087;BME280;31824;49.648;8.640;2023-08-06T03:49:20;99299.53;;;15.98;100.00
46087;BME280;31824;49.648;8.640;2023-08-06T03:52:21;99305.03;;;16.01;100.00
46087;BME280;31824;49.648;8.640;2023-08-06T03:55:25;99305.59;;;15.95;100.00
46087;BME280;31824;49.648;8.640;2023-08-06T03:58:27;99305.81;;;15.83;100.00
46087;BME280;31824;49.648;8.640;2023-08-06T04:01:29;99300.84;;;15.75;100.00
46087;BME280;31824;49.648;8.640;2023-08-06T04:04:31;99304.44;;;15.75;100.00
46087;BME280;31824;49.648;8.640;2023-08-06T04:07:32;99306.06;;;15.73;100.00
46087;BME280;31824;49.648;8.640;2023-08-06T04:10:35;99299.69;;;15.69;100.00
46087;BME280;31824;49.648;8.640;2023-08-06T04:13:38;99307.34;;;15.65;100.00
46087;BME280;31824;49.648;8.640;2023-08-06T04:16:40;99313.84;;;15.55;100.00
46087;BME280;31824;49.648;8.640;2023-08-06T04:19:42;99311.47;;;15.45;100.00
46087;BME280;31824;49.648;8.640;2023-08-06T04:22:44;99306.75;;;15.39;100.00
46087;BME280;31824;49.648;8.640;2023-08-06T04:25:47;99306.50;;;15.34;100.00
46087;BME280;31824;49.648;8.640;2023-08-06T04:28:49;99297.19;;;15.26;100.00
46087;BME280;31824;49.648;8.640;2023-08-06T04:31:51;99301.47;;;15.24;100.00
46087;BME280;31824;49.648;8.640;2023-08-06T04:34:55;99308.59;;;15.25;100.00
46087;BME280;31824;49.648;8.640;2023-08-06T04:37:58;99307.69;;;15.25;100.00
46087;BME280;31824;49.648;8.640;2023-08-06T04:41:01;99302.41;;;15.25;100.00
46087;BME280;31824;49.648;8.640;2023-08-06T04:44:04;99306.84;;;15.26;100.00
46087;BME280;31824;49.648;8.640;2023-08-06T04:47:06;99305.94;;;15.25;100.00
46087;BME280;31824;49.648;8.640;2023-08-06T04:50:09;99306.03;;;15.27;100.00
46087;BME280;31824;49.648;8.640;2023-08-06T04:53:11;99302.94;;;15.19;100.00
46087;BME280;31824;49.648;8.640;2023-08-06T04:56:14;99304.84;;;15.22;100.00
46087;BME280;31824;49.648;8.640;2023-08-06T04:59:16;99305.69;;;15.21;100.00
46087;BME280;31824;49.648;8.640;2023-08-06T05:02:18;99302.75;;;15.16;100.00
46087;BME280;31824;49.648;8.640;2023-08-06T05:05:20;99309.59;;;15.12;100.00
46087;BME280;31824;49.648;8.640;2023-08-06T05:08:22;99312.25;;;15.12;100.00
46087;BME280;31824;49.648;8.640;2023-08-06T05:11:25;99310.41;;;15.11;100.00
46087;BME280;31824;49.648;8.640;2023-08-06T05:14:27;99309.31;;;15.08;100.00
46087;BME280;31824;49.648;8.640;2023-08-06T05:17:29;99301.09;;;15.03;100.00
46087;BME280;31824;49.648;8.640;2023-08-06T05:20:33;99297.81;;;15.07;100.00
46087;BME280;31824;49.648;8.640;2023-08-06T05:23:37;99309.22;;;15.06;100.00
46087;BME280;31824;49.648;8.640;2023-08-06T05:26:40;99308.03;;;15.01;100.00
46087;BME280;31824;49.648;8.640;2023-08-06T05:29:42;99312.50;;;15.02;100.00
46087;BME280;31824;49.648;8.640;2023-08-06T05:32:45;99316.50;;;14.95;100.00
46087;BME280;31824;49.648;8.640;2023-08-06T05:35:46;99320.41;;;14.87;100.00
46087;BME280;31824;49.648;8.640;2023-08-06T05:38:48;99325.84;;;14.75;100.00
46087;BME280;31824;49.648;8.640;2023-08-06T05:41:52;99318.28;;;14.66;100.00
46087;BME280;31824;49.648;8.640;2023-08-06T05:44:54;99317.56;;;14.69;100.00
46087;BME280;31824;49.648;8.640;2023-08-06T05:47:56;99321.09;;;14.69;100.00
46087;BME280;31824;49.648;8.640;2023-08-06T05:51:00;99320.00;;;14.66;100.00
46087;BME280;31824;49.648;8.640;2023-08-06T05:54:02;99324.78;;;14.72;100.00
46087;BME280;31824;49.648;8.640;2023-08-06T05:57:06;99329.75;;;14.67;100.00
46087;BME280;31824;49.648;8.640;2023-08-06T06:00:09;99330.38;;;14.63;100.00
46087;BME280;31824;49.648;8.640;2023-08-06T06:03:14;99333.72;;;14.60;100.00
46087;BME280;31824;49.648;8.640;2023-08-06T06:06:16;99322.47;;;14.49;100.00
46087;BME280;31824;49.648;8.640;2023-08-06T06:09:20;99327.66;;;14.48;100.00
46087;BME280;31824;49.648;8.640;2023-08-06T06:12:23;99332.13;;;14.49;100.00
46087;BME280;31824;49.648;8.640;2023-08-06T06:15:26;99328.78;;;14.51;100.00
46087;BME280;31824;49.648;8.640;2023-08-06T06:18:28;99338.22;;;14.48;100.00
46087;BME280;31824;49.648;8.640;2023-08-06T06:21:30;99344.53;;;14.50;100.00
46087;BME280;31824;49.648;8.640;2023-08-06T06:24:32;99344.72;;;14.53;100.00
46087;BME280;31824;49.648;8.640;2023-08-06T06:27:35;99343.19;;;14.57;100.00
46087;BME280;31824;49.648;8.640;2023-08-06T06:30:36;99350.41;;;14.59;100.00
46087;BME280;31824;49.648;8.640;2023-08-06T06:33:38;99346.38;;;14.51;100.00
46087;BME280;31824;49.648;8.640;2023-08-06T06:36:40;99346.66;;;14.56;100.00
46087;BME280;31824;49.648;8.640;2023-08-06T06:39:42;99352.03;;;14.57;100.00
46087;BME280;31824;49.648;8.640;2023-08-06T06:42:45;99353.69;;;14.55;100.00
46087;BME280;31824;49.648;8.640;2023-08-06T06:45:52;99355.13;;;14.50;100.00
46087;BME280;31824;49.648;8.640;2023-08-06T06:48:54;99356.19;;;14.53;100.00
46087;BME280;31824;49.648;8.640;2023-08-06T06:51:56;99345.13;;;14.59;100.00
46087;BME280;31824;49.648;8.640;2023-08-06T06:54:58;99344.81;;;14.68;100.00
46087;BME280;31824;49.648;8.640;2023-08-06T06:58:01;99343.59;;;14.63;100.00
46087;BME280;31824;49.648;8.640;2023-08-06T07:01:03;99345.44;;;14.64;100.00
46087;BME280;31824;49.648;8.640;2023-08-06T07:04:05;99350.09;;;14.68;100.00
46087;BME280;31824;49.648;8.640;2023-08-06T07:07:07;99352.66;;;14.66;100.00
46087;BME280;31824;49.648;8.640;2023-08-06T07:10:09;99346.44;;;14.66;100.00
46087;BME280;31824;49.648;8.640;2023-08-06T07:13:13;99351.41;;;14.61;100.00
46087;BME280;31824;49.648;8.640;2023-08-06T07:16:15;99345.31;;;14.62;100.00
46087;BME280;31824;49.648;8.640;2023-08-06T07:19:17;99346.44;;;14.66;100.00
46087;BME280;31824;49.648;8.640;2023-08-06T07:22:19;99354.03;;;14.61;100.00
46087;BME280;31824;49.648;8.640;2023-08-06T07:25:21;99348.06;;;14.64;100.00
46087;BME280;31824;49.648;8.640;2023-08-06T07:28:24;99345.38;;;14.77;100.00
46087;BME280;31824;49.648;8.640;2023-08-06T07:31:26;99344.75;;;14.81;100.00
46087;BME280;31824;49.648;8.640;2023-08-06T07:34:28;99347.66;;;14.86;100.00
46087;BME280;31824;49.648;8.640;2023-08-06T07:37:30;99352.63;;;14.95;100.00
46087;BME280;31824;49.648;8.640;2023-08-06T07:40:32;99352.53;;;14.93;100.00
46087;BME280;31824;49.648;8.640;2023-08-06T07:43:36;99347.91;;;15.04;100.00
46087;BME280;31824;49.648;8.640;2023-08-06T07:46:37;99348.91;;;15.06;100.00
46087;BME280;31824;49.648;8.640;2023-08-06T07:49:41;99348.16;;;15.09;100.00
46087;BME280;31824;49.648;8.640;2023-08-06T07:52:44;99358.50;;;15.19;100.00
46087;BME280;31824;49.648;8.640;2023-08-06T07:55:49;99356.03;;;15.22;100.00
46087;BME280;31824;49.648;8.640;2023-08-06T07:58:52;99344.09;;;15.44;100.00
46087;BME280;31824;49.648;8.640;2023-08-06T08:01:54;99351.94;;;15.57;100.00
46087;BME280;31824;49.648;8.640;2023-08-06T08:04:56;99345.78;;;15.58;100.00
46087;BME280;31824;49.648;8.640;2023-08-06T08:07:58;99340.16;;;15.67;100.00
46087;BME280;31824;49.648;8.640;2023-08-06T08:11:00;99340.69;;;15.61;100.00
46087;BME280;31824;49.648;8.640;2023-08-06T08:14:05;99339.03;;;15.63;100.00
46087;BME280;31824;49.648;8.640;2023-08-06T08:17:07;99344.00;;;15.42;100.00
46087;BME280;31824;49.648;8.640;2023-08-06T08:20:09;99339.59;;;15.58;100.00
46087;BME280;31824;49.648;8.640;2023-08-06T08:23:11;99342.88;;;15.68;100.00
46087;BME280;31824;49.648;8.640;2023-08-06T08:26:13;99333.28;;;15.85;100.00
46087;BME280;31824;49.648;8.640;2023-08-06T08:29:16;99327.03;;;16.00;100.00
46087;BME280;31824;49.648;8.640;2023-08-06T08:32:18;99331.84;;;16.07;100.00
46087;BME280;31824;49.648;8.640;2023-08-06T08:35:20;99328.88;;;16.01;100.00
46087;BME280;31824;49.648;8.640;2023-08-06T08:38:22;99327.03;;;16.00;100.00
46087;BME280;31824;49.648;8.640;2023-08-06T08:41:24;99318.41;;;15.88;100.00
46087;BME280;31824;49.648;8.640;2023-08-06T08:44:28;99321.66;;;15.98;100.00
46087;BME280;31824;49.648;8.640;2023-08-06T08:47:31;99314.25;;;16.08;100.00
46087;BME280;31824;49.648;8.640;2023-08-06T08:50:33;99307.78;;;16.19;100.00
46087;BME280;31824;49.648;8.640;2023-08-06T08:53:36;99313.25;;;16.22;100.00
46087;BME280;31824;49.648;8.640;2023-08-06T08:56:40;99301.94;;;16.41;100.00
46087;BME280;31824;49.648;8.640;2023-08-06T08:59:44;99299.69;;;16.32;100.00
46087;BME280;31824;49.648;8.640;2023-08-06T09:02:46;99304.09;;;16.65;100.00
46087;BME280;31824;49.648;8.640;2023-08-06T09:05:50;99297.38;;;16.71;100.00
46087;BME280;31824;49.648;8.640;2023-08-06T09:08:56;99296.16;;;16.48;100.00
46087;BME280;31824;49.648;8.640;2023-08-06T09:12:04;99289.75;;;16.28;100.00
46087;BME280;31824;49.648;8.640;2023-08-06T09:15:09;99307.06;;;16.22;100.00
46087;BME280;31824;49.648;8.640;2023-08-06T09:18:11;99311.34;;;16.19;100.00
46087;BME280;31824;49.648;8.640;2023-08-06T09:21:16;99310.19;;;16.14;100.00
46087;BME280;31824;49.648;8.640;2023-08-06T09:24:17;99314.31;;;16.09;100.00
46087;BME280;31824;49.648;8.640;2023-08-06T09:27:22;99303.97;;;16.30;100.00
46087;BME280;31824;49.648;8.640;2023-08-06T09:30:32;99304.56;;;16.58;100.00
46087;BME280;31824;49.648;8.640;2023-08-06T09:33:35;99296.88;;;16.79;100.00
46087;BME280;31824;49.648;8.640;2023-08-06T09:36:40;99292.16;;;16.90;100.00
46087;BME280;31824;49.648;8.640;2023-08-06T09:39:42;99279.69;;;17.05;100.00
46087;BME280;31824;49.648;8.640;2023-08-06T09:42:43;99279.00;;;17.44;100.00
46087;BME280;31824;49.648;8.640;2023-08-06T09:45:48;99278.94;;;17.60;100.00
46087;BME280;31824;49.648;8.640;2023-08-06T09:48:50;99280.28;;;17.70;100.00
46087;BME280;31824;49.648;8.640;2023-08-06T09:51:52;99280.78;;;17.61;100.00
46087;BME280;31824;49.648;8.640;2023-08-06T09:54:58;99276.75;;;17.69;100.00
46087;BME280;31824;49.648;8.640;2023-08-06T09:58:01;99278.78;;;17.75;100.00
46087;BME280;31824;49.648;8.640;2023-08-06T10:01:04;99271.78;;;17.59;100.00
46087;BME280;31824;49.648;8.640;2023-08-06T10:04:07;99289.25;;;17.54;100.00
46087;BME280;31824;49.648;8.640;2023-08-06T10:07:25;99280.31;;;17.34;100.00
46087;BME280;31824;49.648;8.640;2023-08-06T10:10:29;99278.63;;;17.36;100.00
46087;BME280;31824;49.648;8.640;2023-08-06T10:13:33;99284.75;;;17.35;100.00
46087;BME280;31824;49.648;8.640;2023-08-06T10:16:39;99280.72;;;17.43;100.00
46087;BME280;31824;49.648;8.640;2023-08-06T10:19:42;99295.97;;;17.29;100.00
46087;BME280;31824;49.648;8.640;2023-08-06T10:22:44;99310.47;;;16.85;100.00
46087;BME280;31824;49.648;8.640;2023-08-06T10:25:53;99310.47;;;16.52;100.00
46087;BME280;31824;49.648;8.640;2023-08-06T10:28:57;99322.28;;;16.26;100.00
46087;BME280;31824;49.648;8.640;2023-08-06T10:32:01;99325.84;;;16.26;100.00
46087;BME280;31824;49.648;8.640;2023-08-06T10:35:03;99335.56;;;16.42;100.00
46087;BME280;31824;49.648;8.640;2023-08-06T10:38:08;99323.31;;;16.44;100.00
46087;BME280;31824;49.648;8.640;2023-08-06T10:41:15;99339.53;;;16.50;100.00
46087;BME280;31824;49.648;8.640;2023-08-06T10:44:18;99341.88;;;16.44;100.00
46087;BME280;31824;49.648;8.640;2023-08-06T10:47:30;99349.13;;;16.32;100.00
46087;BME280;31824;49.648;8.640;2023-08-06T10:50:32;99356.44;;;16.04;100.00
46087;BME280;31824;49.648;8.640;2023-08-06T10:53:34;99360.94;;;15.91;100.00
46087;BME280;31824;49.648;8.640;2023-08-06T10:56:40;99352.00;;;15.89;100.00
46087;BME280;31824;49.648;8.640;2023-08-06T10:59:43;99357.56;;;15.78;100.00
46087;BME280;31824;49.648;8.640;2023-08-06T11:02:48;99348.78;;;15.79;100.00
46087;BME280;31824;49.648;8.640;2023-08-06T11:05:51;99352.16;;;15.77;100.00
46087;BME280;31824;49.648;8.640;2023-08-06T11:08:54;99365.91;;;15.69;100.00
46087;BME280;31824;49.648;8.640;2023-08-06T11:11:56;99362.25;;;15.82;100.00
46087;BME280;31824;49.648;8.640;2023-08-06T11:14:58;99365.34;;;15.90;100.00
46087;BME280;31824;49.648;8.640;2023-08-06T11:18:02;99359.66;;;15.99;100.00
46087;BME280;31824;49.648;8.640;2023-08-06T11:21:04;99364.91;;;16.14;100.00
46087;BME280;31824;49.648;8.640;2023-08-06T11:24:06;99371.03;;;16.13;100.00
46087;BME280;31824;49.648;8.640;2023-08-06T11:27:12;99389.38;;;16.25;100.00
46087;BME280;31824;49.648;8.640;2023-08-06T11:30:15;99391.13;;;16.24;100.00
46087;BME280;31824;49.648;8.640;2023-08-06T11:33:21;99387.66;;;16.25;100.00
46087;BME280;31824;49.648;8.640;2023-08-06T11:36:30;99397.41;;;16.26;100.00
46087;BME280;31824;49.648;8.640;2023-08-06T11:39:32;99392.47;;;16.32;100.00
46087;BME280;31824;49.648;8.640;2023-08-06T11:42:35;99398.38;;;16.43;100.00
46087;BME280;31824;49.648;8.640;2023-08-06T11:45:37;99398.03;;;16.53;100.00
46087;BME280;31824;49.648;8.640;2023-08-06T11:48:51;99398.88;;;16.52;100.00
46087;BME280;31824;49.648;8.640;2023-08-06T11:51:53;99412.59;;;16.45;100.00
46087;BME280;31824;49.648;8.640;2023-08-06T11:55:00;99411.06;;;16.65;100.00
46087;BME280;31824;49.648;8.640;2023-08-06T11:58:09;99416.88;;;16.75;100.00
46087;BME280;31824;49.648;8.640;2023-08-06T12:01:13;99422.13;;;16.73;100.00
46087;BME280;31824;49.648;8.640;2023-08-06T12:04:16;99448.47;;;16.70;100.00
46087;BME280;31824;49.648;8.640;2023-08-06T12:07:18;99443.63;;;16.63;100.00
46087;BME280;31824;49.648;8.640;2023-08-06T12:10:24;99448.94;;;16.63;100.00
46087;BME280;31824;49.648;8.640;2023-08-06T12:13:27;99452.75;;;16.68;100.00
46087;BME280;31824;49.648;8.640;2023-08-06T12:16:29;99448.94;;;16.63;100.00
46087;BME280;31824;49.648;8.640;2023-08-06T12:19:32;99463.00;;;16.62;100.00
46087;BME280;31824;49.648;8.640;2023-08-06T12:22:52;99461.53;;;16.67;100.00
46087;BME280;31824;49.648;8.640;2023-08-06T12:25:54;99470.63;;;16.56;100.00
46087;BME280;31824;49.648;8.640;2023-08-06T12:28:57;99489.97;;;16.69;100.00
46087;BME280;31824;49.648;8.640;2023-08-06T12:31:59;99483.19;;;16.75;100.00
46087;BME280;31824;49.648;8.640;2023-08-06T12:35:02;99498.00;;;16.71;100.00
46087;BME280;31824;49.648;8.640;2023-08-06T12:38:05;99491.59;;;16.82;100.00
46087;BME280;31824;49.648;8.640;2023-08-06T12:41:07;99506.81;;;16.70;100.00
46087;BME280;31824;49.648;8.640;2023-08-06T12:44:09;99500.38;;;16.81;100.00
46087;BME280;31824;49.648;8.640;2023-08-06T12:47:10;99507.75;;;16.87;100.00
46087;BME280;31824;49.648;8.640;2023-08-06T12:50:14;99506.41;;;16.94;100.00
46087;BME280;31824;49.648;8.640;2023-08-06T12:53:16;99501.81;;;16.91;100.00
46087;BME280;31824;49.648;8.640;2023-08-06T12:56:17;99507.50;;;16.97;100.00
46087;BME280;31824;49.648;8.640;2023-08-06T12:59:20;99512.59;;;16.94;100.00
46087;BME280;31824;49.648;8.640;2023-08-06T13:02:22;99510.59;;;16.90;100.00
46087;BME280;31824;49.648;8.640;2023-08-06T13:05:25;99525.94;;;16.96;100.00
46087;BME280;31824;49.648;8.640;2023-08-06T13:08:27;99531.38;;;16.97;100.00
46087;BME280;31824;49.648;8.640;2023-08-06T13:11:34;99525.63;;;16.90;100.00
46087;BME280;31824;49.648;8.640;2023-08-06T13:14:37;99537.34;;;16.93;100.00
46087;BME280;31824;49.648;8.640;2023-08-06T13:17:39;99553.25;;;16.93;100.00
46087;BME280;31824;49.648;8.640;2023-08-06T13:20:42;99562.97;;;16.63;100.00
46087;BME280;31824;49.648;8.640;2023-08-06T13:24:05;99563.03;;;16.64;100.00
46087;BME280;31824;49.648;8.640;2023-08-06T13:27:07;99553.81;;;16.58;100.00
46087;BME280;31824;49.648;8.640;2023-08-06T13:30:14;99571.47;;;16.72;100.00
46087;BME280;31824;49.648;8.640;2023-08-06T13:33:16;99570.81;;;16.76;100.00
46087;BME280;31824;49.648;8.640;2023-08-06T13:36:19;99591.22;;;16.62;100.00
46087;BME280;31824;49.648;8.640;2023-08-06T13:39:21;99582.72;;;16.68;100.00
46087;BME280;31824;49.648;8.640;2023-08-06T13:42:41;99579.97;;;16.66;100.00
46087;BME280;31824;49.648;8.640;2023-08-06T13:45:43;99590.50;;;16.65;100.00
46087;BME280;31824;49.648;8.640;2023-08-06T13:48:46;99609.16;;;16.66;100.00
46087;BME280;31824;49.648;8.640;2023-08-06T13:51:50;99610.69;;;16.63;100.00
46087;BME280;31824;49.648;8.640;2023-08-06T13:55:12;99599.19;;;16.47;100.00
46087;BME280;31824;49.648;8.640;2023-08-06T13:58:14;99614.47;;;16.51;100.00
46087;BME280;31824;49.648;8.640;2023-08-06T14:01:17;99615.44;;;16.53;100.00
46087;BME280;31824;49.648;8.640;2023-08-06T14:04:20;99614.56;;;16.53;100.00
46087;BME280;31824;49.648;8.640;2023-08-06T14:07:24;99616.94;;;16.48;100.00
46087;BME280;31824;49.648;8.640;2023-08-06T14:10:27;99622.25;;;16.48;100.00
46087;BME280;31824;49.648;8.640;2023-08-06T14:13:28;99609.25;;;16.53;100.00
46087;BME280;31824;49.648;8.640;2023-08-06T14:16:30;99615.00;;;16.61;100.00
46087;BME280;31824;49.648;8.640;2023-08-06T14:19:32;99631.66;;;16.73;100.00
46087;BME280;31824;49.648;8.640;2023-08-06T14:22:35;99640.50;;;16.74;100.00
46087;BME280;31824;49.648;8.640;2023-08-06T14:25:38;99638.41;;;16.68;100.00
46087;BME280;31824;49.648;8.640;2023-08-06T14:28:40;99646.38;;;16.68;100.00
46087;BME280;31824;49.648;8.640;2023-08-06T14:31:42;99653.13;;;16.63;100.00
46087;BME280;31824;49.648;8.640;2023-08-06T14:34:44;99659.81;;;16.56;100.00
46087;BME280;31824;49.648;8.640;2023-08-06T14:37:47;99659.38;;;16.48;100.00
46087;BME280;31824;49.648;8.640;2023-08-06T14:40:49;99660.25;;;16.49;100.00
46087;BME280;31824;49.648;8.640;2023-08-06T14:43:51;99673.34;;;16.46;100.00
46087;BME280;31824;49.648;8.640;2023-08-06T14:46:55;99673.78;;;16.53;100.00
46087;BME280;31824;49.648;8.640;2023-08-06T14:49:57;99683.22;;;16.48;100.00
46087;BME280;31824;49.648;8.640;2023-08-06T14:53:00;99679.38;;;16.43;100.00
46087;BME280;31824;49.648;8.640;2023-08-06T14:56:06;99683.75;;;16.43;100.00
46087;BME280;31824;49.648;8.640;2023-08-06T14:59:08;99686.84;;;16.35;100.00
46087;BME280;31824;49.648;8.640;2023-08-06T15:02:10;99690.94;;;16.30;100.00
46087;BME280;31824;49.648;8.640;2023-08-06T15:05:11;99695.16;;;16.27;100.00
46087;BME280;31824;49.648;8.640;2023-08-06T15:08:16;99698.16;;;16.18;100.00
46087;BME280;31824;49.648;8.640;2023-08-06T15:11:18;99689.88;;;16.27;100.00
46087;BME280;31824;49.648;8.640;2023-08-06T15:14:20;99699.88;;;16.17;100.00
46087;BME280;31824;49.648;8.640;2023-08-06T15:17:22;99704.97;;;15.99;100.00
46087;BME280;31824;49.648;8.640;2023-08-06T15:20:24;99712.41;;;15.92;100.00
46087;BME280;31824;49.648;8.640;2023-08-06T15:23:28;99711.44;;;15.76;100.00
46087;BME280;31824;49.648;8.640;2023-08-06T15:26:30;99721.00;;;15.74;100.00
46087;BME280;31824;49.648;8.640;2023-08-06T15:29:31;99722.63;;;15.72;100.00
46087;BME280;31824;49.648;8.640;2023-08-06T15:32:33;99724.66;;;15.76;100.00
46087;BME280;31824;49.648;8.640;2023-08-06T15:35:35;99734.56;;;15.65;100.00
46087;BME280;31824;49.648;8.640;2023-08-06T15:38:38;99737.41;;;15.82;100.00
46087;BME280;31824;49.648;8.640;2023-08-06T15:41:40;99741.66;;;15.66;100.00
46087;BME280;31824;49.648;8.640;2023-08-06T15:44:43;99740.34;;;15.60;100.00
46087;BME280;31824;49.648;8.640;2023-08-06T15:47:45;99750.16;;;15.47;100.00
46087;BME280;31824;49.648;8.640;2023-08-06T15:50:47;99749.34;;;15.35;100.00
46087;BME280;31824;49.648;8.640;2023-08-06T15:53:50;99759.22;;;15.38;100.00
46087;BME280;31824;49.648;8.640;2023-08-06T15:56:52;99756.28;;;15.33;100.00
46087;BME280;31824;49.648;8.640;2023-08-06T15:59:54;99754.44;;;15.32;100.00